Terminal Aerodrome Forecast
Issued by NWS

Home | Current Version | Previous Version | Text Only | Print | Product List | Glossary On
Versions: 1 2 3 4 5 6 7 8 9 10 11 12 13 14 15 16 17
706
FTUS43 KFGF 301123
TAFDVL
TAF
KDVL 301123Z 3012/3112 VRB06KT P6SM SCT100
     FM302200 15006KT P6SM BKN080
      TEMPO 3022/3101 3SM TSRA BKN040CB
     FM310100 08010KT P6SM SHRA OVC025=

USA.gov is the U.S. government's official web portal to all federal, state and local government web resources and services.